Time;durP1;ratioP1;P1;durP2;ratioP2;P2;SDS_P1;SDS_P2;PMS_P1;PMS_P2;Temp;Humidity;BMP_temperature;BMP_pressure;BME280_temperature;BME280_humidity;BME280_pressure;Samples;Min_cycle;Max_cycle;Signal;HPM_P1;HPM_P2
2021/03/25 00:01:46;;;;;;;69.32;29.32;;;;;;;1.98;72.15;99460.84;2203018;80;21320;-73
2021/03/25 00:04:49;;;;;;;69.20;27.90;;;;;;;1.81;72.43;99459.80;2203491;80;21303;-73
2021/03/25 00:07:51;;;;;;;67.08;27.13;;;;;;;1.66;72.87;99463.03;2186579;80;21153;-73
2021/03/25 00:10:53;;;;;;;64.50;27.87;;;;;;;1.59;73.28;99464.00;2192745;80;21213;-73
2021/03/25 00:13:55;;;;;;;;;;;;;;;1.51;73.30;99464.56;2189635;80;21170;-74
2021/03/25 00:17:00;;;;;;;67.78;28.67;;;;;;;1.45;73.95;99459.04;2203599;80;20238;-73
2021/03/25 00:20:02;;;;;;;68.10;26.97;;;;;;;1.41;73.59;99462.54;2199104;79;21608;-74
2021/03/25 00:23:04;;;;;;;64.82;27.05;;;;;;;1.40;73.17;99456.10;2207228;80;21605;-73
2021/03/25 00:26:06;;;;;;;65.60;27.87;;;;;;;1.32;73.46;99459.64;2203034;79;21271;-73
2021/03/25 00:29:08;;;;;;;68.87;29.92;;;;;;;1.27;73.87;99461.87;2165480;79;21601;-73
2021/03/25 00:32:12;;;;;;;65.55;25.90;;;;;;;1.23;73.51;99463.62;2188499;80;21153;-73
2021/03/25 00:35:14;;;;;;;67.65;28.20;;;;;;;1.17;73.21;99465.00;2197357;80;21171;-73
2021/03/25 00:38:16;;;;;;;97.45;56.90;;;;;;;1.02;72.80;99461.73;2200114;79;21158;-73
2021/03/25 00:41:19;;;;;;;69.32;33.50;;;;;;;0.91;73.34;99457.57;2199777;80;21328;-73
2021/03/25 00:44:21;;;;;;;71.75;29.65;;;;;;;0.82;73.12;99450.75;2193340;79;21300;-74
2021/03/25 00:47:23;;;;;;;76.62;30.08;;;;;;;0.73;73.22;99454.30;2163369;80;21744;-73
2021/03/25 00:50:24;;;;;;;68.83;27.07;;;;;;;0.76;73.28;99452.13;2187009;80;21737;-74
2021/03/25 00:53:28;;;;;;;69.90;30.10;;;;;;;0.69;73.18;99450.06;2194224;80;21276;-74
2021/03/25 00:56:30;;;;;;;64.53;26.37;;;;;;;0.62;73.41;99457.45;2197096;80;21311;-73
2021/03/25 00:59:32;;;;;;;72.25;28.10;;;;;;;0.62;73.94;99451.00;2200276;79;21327;-73
2021/03/25 01:02:34;;;;;;;62.95;26.07;;;;;;;0.71;74.30;99450.89;2181917;80;21323;-73
2021/03/25 01:05:36;;;;;;;67.35;26.90;;;;;;;0.78;73.80;99447.81;2194773;79;21291;-73
2021/03/25 01:08:38;;;;;;;68.37;30.30;;;;;;;0.90;73.80;99436.03;2211259;80;21293;-73
2021/03/25 01:11:40;;;;;;;78.50;32.70;;;;;;;0.95;73.97;99434.27;2185018;80;21292;-73
2021/03/25 01:14:42;;;;;;;102.10;41.65;;;;;;;1.07;74.16;99441.00;2197974;80;21276;-73
2021/03/25 01:17:44;;;;;;;84.77;39.50;;;;;;;1.26;73.96;99427.84;2180064;80;21308;-73
2021/03/25 01:20:46;;;;;;;86.32;37.98;;;;;;;1.26;73.92;99429.98;2183856;81;21296;-74
2021/03/25 01:23:48;;;;;;;92.22;39.00;;;;;;;1.32;73.95;99429.92;2190510;80;21283;-73
2021/03/25 01:26:50;;;;;;;94.60;42.55;;;;;;;1.31;73.81;99428.20;2198254;80;21268;-73
2021/03/25 01:29:52;;;;;;;98.25;43.85;;;;;;;1.33;73.84;99428.17;2188123;80;21296;-73
2021/03/25 01:32:54;;;;;;;80.12;35.90;;;;;;;1.38;74.03;99428.53;2187007;79;21281;-73
2021/03/25 01:35:56;;;;;;;72.20;33.65;;;;;;;1.35;73.97;99427.28;2192498;80;21303;-73
2021/03/25 01:38:58;;;;;;;73.72;33.30;;;;;;;1.19;74.11;99422.77;2204087;80;21331;-73
2021/03/25 01:42:00;;;;;;;68.22;31.48;;;;;;;1.24;74.41;99420.11;2178842;80;21550;-73
2021/03/25 01:45:02;;;;;;;71.17;33.45;;;;;;;1.32;74.47;99420.88;2195985;80;21272;-73
2021/03/25 01:48:04;;;;;;;64.95;29.77;;;;;;;1.36;74.49;99417.79;2179222;80;21605;-73
2021/03/25 01:51:06;;;;;;;80.35;36.53;;;;;;;1.52;74.64;99419.71;2202363;80;21354;-73
2021/03/25 01:54:08;;;;;;;71.02;33.60;;;;;;;1.61;74.59;99414.84;2196948;80;21299;-73
2021/03/25 01:57:10;;;;;;;79.10;35.70;;;;;;;1.73;74.12;99408.20;2186552;80;21276;-73
2021/03/25 02:00:12;;;;;;;84.22;36.83;;;;;;;1.73;74.29;99412.08;2191091;80;21339;-72
2021/03/25 02:03:14;;;;;;;72.50;30.50;;;;;;;1.86;74.11;99405.83;2173728;81;21315;-73
2021/03/25 02:06:16;;;;;;;64.65;28.92;;;;;;;1.81;74.00;99404.19;2195141;80;21299;-73
2021/03/25 02:09:18;;;;;;;57.48;26.97;;;;;;;1.84;74.18;99401.13;2213727;80;21288;-73
2021/03/25 02:12:21;;;;;;;73.05;33.67;;;;;;;1.81;74.18;99403.77;2211779;80;21628;-73
2021/03/25 02:15:23;;;;;;;93.12;37.83;;;;;;;1.83;74.58;99402.45;2205721;80;21794;-73
2021/03/25 02:18:25;;;;;;;66.22;27.10;;;;;;;1.89;74.35;99398.01;2194636;80;21704;-73
2021/03/25 02:21:26;;;;;;;58.58;26.05;;;;;;;1.92;74.37;99409.20;2188902;80;21287;-73
2021/03/25 02:24:28;;;;;;;60.65;25.90;;;;;;;1.90;74.03;99406.19;2188776;80;21287;-73
2021/03/25 02:27:31;;;;;;;61.85;26.40;;;;;;;1.98;74.38;99398.73;2199115;79;21280;-73
2021/03/25 02:30:33;;;;;;;;;;;;;;;2.12;73.93;99394.18;2162739;80;21292;-73
2021/03/25 02:33:35;;;;;;;59.40;25.12;;;;;;;1.97;73.89;99393.14;2202609;80;20226;-73
2021/03/25 02:36:37;;;;;;;62.88;26.90;;;;;;;1.90;73.99;99397.59;2190694;80;21732;-73
2021/03/25 02:39:39;;;;;;;69.10;31.12;;;;;;;1.85;74.25;99391.20;2177880;80;21708;-73
2021/03/25 02:42:41;;;;;;;70.70;31.60;;;;;;;1.84;74.42;99385.61;2208198;80;21736;-73
2021/03/25 02:45:43;;;;;;;54.00;23.25;;;;;;;1.86;74.60;99381.25;2196244;79;21374;-73
2021/03/25 02:48:48;;;;;;;61.48;27.75;;;;;;;1.86;74.60;99381.25;2194502;80;21307;-73
2021/03/25 02:51:51;;;;;;;61.83;29.20;;;;;;;1.96;74.65;99388.42;2207970;80;21302;-73
2021/03/25 02:54:53;;;;;;;72.65;33.53;;;;;;;1.94;74.52;99388.90;2204405;79;21787;-73
2021/03/25 02:57:55;;;;;;;77.85;35.30;;;;;;;1.96;74.77;99387.12;2158709;80;21736;-73
2021/03/25 03:00:57;;;;;;;71.55;30.75;;;;;;;2.05;75.00;99386.98;2184346;80;21759;-72
2021/03/25 03:03:59;;;;;;;62.83;27.95;;;;;;;2.14;75.01;99387.68;2201921;80;21731;-73
2021/03/25 03:07:01;;;;;;;56.25;26.45;;;;;;;2.04;74.92;99383.10;2197516;79;21304;-73
2021/03/25 03:10:03;;;;;;;60.40;26.62;;;;;;;1.97;75.13;99385.38;2203129;79;21732;-72
2021/03/25 03:13:05;;;;;;;57.27;27.10;;;;;;;1.85;74.98;99380.86;2205351;79;21299;-73
2021/03/25 03:16:07;;;;;;;60.23;28.42;;;;;;;1.89;75.32;99389.41;2188805;80;21292;-73
2021/03/25 03:19:09;;;;;;;76.15;33.92;;;;;;;2.03;75.28;99384.00;2188171;80;21299;-72
2021/03/25 03:22:11;;;;;;;74.00;32.85;;;;;;;2.12;75.14;99389.01;2199943;80;21708;-73
2021/03/25 03:25:13;;;;;;;60.58;27.48;;;;;;;2.17;74.94;99391.51;2190070;80;21747;-73
2021/03/25 03:28:15;;;;;;;71.75;31.33;;;;;;;2.30;75.08;99386.55;2187380;80;21741;-73
2021/03/25 03:31:18;;;;;;;104.35;41.40;;;;;;;2.34;74.71;99386.91;2180395;80;21751;-73
2021/03/25 03:34:20;;;;;;;;;;;;;;;2.38;74.62;99388.98;2171662;80;21268;-73
2021/03/25 03:37:22;;;;;;;86.65;36.23;;;;;;;2.36;74.71;99392.89;2189309;80;20267;-73
2021/03/25 03:40:24;;;;;;;77.70;34.33;;;;;;;2.34;74.68;99386.91;2195191;80;21267;-73
2021/03/25 03:43:26;;;;;;;69.80;32.17;;;;;;;2.34;74.56;99390.78;2192909;80;21731;-73
2021/03/25 03:46:28;;;;;;;60.45;27.05;;;;;;;2.32;74.78;99386.06;2193644;79;21370;-73
2021/03/25 03:49:30;;;;;;;68.28;29.57;;;;;;;2.39;74.92;99382.93;2189591;80;21295;-73
2021/03/25 03:52:32;;;;;;;66.70;29.70;;;;;;;2.44;75.00;99378.50;2205072;79;21292;-73
2021/03/25 03:55:34;;;;;;;63.38;28.12;;;;;;;2.47;75.10;99369.41;2197630;80;21289;-73
2021/03/25 03:58:36;;;;;;;68.15;29.40;;;;;;;2.46;75.11;99377.17;2205738;80;21160;-73
2021/03/25 04:01:38;;;;;;;68.75;30.10;;;;;;;2.46;75.28;99371.99;2195415;80;21282;-73
2021/03/25 04:04:40;;;;;;;61.48;28.80;;;;;;;2.49;75.17;99371.96;2196190;80;21343;-73
2021/03/25 04:07:42;;;;;;;59.65;26.87;;;;;;;2.46;75.41;99375.87;2183869;80;21295;-73
2021/03/25 04:10:44;;;;;;;61.65;28.60;;;;;;;2.19;76.16;99379.41;2198404;80;21759;-73
2021/03/25 04:13:46;;;;;;;65.32;30.23;;;;;;;2.12;76.18;99381.24;2179701;80;21731;-73
2021/03/25 04:16:48;;;;;;;67.62;30.37;;;;;;;2.16;76.12;99385.48;2196396;80;21727;-73
2021/03/25 04:19:50;;;;;;;69.17;30.88;;;;;;;2.30;76.30;99377.48;2210867;80;21747;-73
2021/03/25 04:22:52;;;;;;;69.42;30.88;;;;;;;2.30;76.30;99377.48;2187084;80;21879;-73
2021/03/25 04:25:54;;;;;;;70.90;32.13;;;;;;;2.56;76.08;99343.77;2216398;80;21276;-73
2021/03/25 04:28:56;;;;;;;65.97;31.12;;;;;;;2.72;75.49;99371.05;2207056;80;21366;-73
2021/03/25 04:31:58;;;;;;;78.35;36.50;;;;;;;2.65;75.41;99376.40;2199312;80;21296;-74
2021/03/25 04:35:01;;;;;;;86.45;38.30;;;;;;;2.67;75.50;99372.02;2201175;80;21601;-73
2021/03/25 04:38:03;;;;;;;74.20;32.58;;;;;;;2.65;75.48;99373.35;2200114;80;21752;-73
2021/03/25 04:41:05;;;;;;;67.95;30.65;;;;;;;2.65;75.49;99378.53;2185679;80;21292;-73
2021/03/25 04:44:07;;;;;;;77.80;34.88;;;;;;;2.52;77.14;99386.14;2182525;80;21712;-73
2021/03/25 04:47:09;;;;;;;68.28;31.12;;;;;;;2.18;76.82;99397.10;2199352;80;21724;-73
2021/03/25 04:50:11;;;;;;;71.40;31.40;;;;;;;2.16;77.12;99393.25;2204634;80;21720;-73
2021/03/25 04:53:13;;;;;;;66.30;29.32;;;;;;;2.04;76.69;99394.75;2191355;80;21292;-72
2021/03/25 04:56:15;;;;;;;68.28;31.57;;;;;;;2.04;76.89;99394.33;2212160;80;21153;-72
2021/03/25 04:59:17;;;;;;;69.82;31.70;;;;;;;2.20;76.94;99396.66;2190479;80;21276;-73
2021/03/25 05:02:19;;;;;;;70.15;31.15;;;;;;;2.24;76.75;99404.33;2182708;80;21303;-73
2021/03/25 05:05:21;;;;;;;63.85;31.02;;;;;;;2.12;77.67;99407.13;2199016;80;21301;-73
2021/03/25 05:08:23;;;;;;;70.62;30.40;;;;;;;2.09;77.10;99404.59;2186301;80;21300;-72
2021/03/25 05:11:26;;;;;;;79.60;40.12;;;;;;;2.23;77.27;99401.32;2179422;80;21391;-73
2021/03/25 05:14:28;;;;;;;74.30;32.90;;;;;;;2.41;77.15;99400.15;2179086;80;21165;-73
2021/03/25 05:17:30;;;;;;;71.47;32.20;;;;;;;2.53;76.62;99404.23;2193438;80;21737;-72
2021/03/25 05:20:32;;;;;;;73.97;31.95;;;;;;;2.58;76.40;99411.46;2195636;80;21296;-72
2021/03/25 05:23:35;;;;;;;69.32;32.63;;;;;;;2.67;76.41;99405.28;2194243;80;21313;-73
2021/03/25 05:26:37;;;;;;;71.75;32.40;;;;;;;2.74;76.39;99405.98;2203510;79;21707;-73
2021/03/25 05:29:39;;;;;;;75.08;33.48;;;;;;;2.84;76.46;99411.39;2197415;80;21299;-73
2021/03/25 05:32:43;;;;;;;83.82;40.35;;;;;;;2.91;76.25;99417.31;2195530;78;21170;-73
2021/03/25 05:35:47;;;;;;;80.30;38.05;;;;;;;3.05;76.39;99413.16;2196872;80;21231;-73
2021/03/25 05:38:49;;;;;;;77.87;37.63;;;;;;;3.11;75.68;99403.48;2209123;80;21768;-73
2021/03/25 05:41:51;;;;;;;84.87;39.20;;;;;;;3.11;75.69;99406.08;2193257;80;21736;-73
2021/03/25 05:44:53;;;;;;;78.25;36.77;;;;;;;3.18;75.95;99408.56;2192005;79;21288;-72
2021/03/25 05:47:55;;;;;;;78.65;37.20;;;;;;;3.39;76.14;99406.80;2178726;80;21731;-73
2021/03/25 05:50:57;;;;;;;82.82;41.35;;;;;;;3.47;75.81;99407.91;2185475;80;21742;-73
2021/03/25 05:53:59;;;;;;;84.77;41.35;;;;;;;3.33;75.77;99413.85;2188175;79;21728;-72
2021/03/25 05:57:01;;;;;;;83.15;41.28;;;;;;;3.38;76.06;99415.45;2202983;80;21775;-73
2021/03/25 06:00:03;;;;;;;91.75;42.73;;;;;;;3.63;75.63;99411.88;2177110;80;21292;-72
2021/03/25 06:03:05;;;;;;;100.40;45.43;;;;;;;3.70;75.51;99409.97;2200582;80;21304;-73
2021/03/25 06:06:11;;;;;;;80.85;38.28;;;;;;;3.76;75.36;99416.76;2214620;80;21204;-72
2021/03/25 06:09:13;;;;;;;83.47;40.15;;;;;;;3.83;75.37;99419.62;2210182;80;21605;-73
2021/03/25 06:12:15;;;;;;;90.40;44.70;;;;;;;3.93;75.36;99428.87;2187242;80;21307;-72
2021/03/25 06:15:17;;;;;;;127.97;60.80;;;;;;;4.20;75.03;99433.00;2187961;80;21720;-73
2021/03/25 06:18:19;;;;;;;123.42;57.83;;;;;;;4.28;74.40;99431.48;2161665;80;21264;-72
2021/03/25 06:21:23;;;;;;;107.17;51.92;;;;;;;4.27;74.45;99423.31;2175630;80;21295;-72
2021/03/25 06:24:25;;;;;;;116.60;50.17;;;;;;;4.32;74.58;99426.62;2197670;80;21280;-73
2021/03/25 06:27:27;;;;;;;101.12;45.73;;;;;;;4.40;74.35;99427.75;2196072;79;21288;-72
2021/03/25 06:30:29;;;;;;;91.87;43.15;;;;;;;4.43;74.12;99422.02;2189984;80;21296;-72
2021/03/25 06:33:31;;;;;;;98.17;45.83;;;;;;;4.55;74.37;99417.38;2200072;79;21614;-72
2021/03/25 06:36:33;;;;;;;132.63;65.32;;;;;;;4.71;74.17;99425.61;2187016;80;21364;-72
2021/03/25 06:39:36;;;;;;;178.78;76.45;;;;;;;4.78;74.18;99421.95;2194647;80;21732;-73
2021/03/25 06:42:41;;;;;;;199.68;86.42;;;;;;;4.89;74.16;99417.77;2200246;80;21300;-72
2021/03/25 06:45:43;;;;;;;144.53;60.95;;;;;;;5.02;73.85;99424.31;2187575;80;21288;-72
2021/03/25 06:48:45;;;;;;;111.28;51.83;;;;;;;5.07;73.29;99432.84;2195361;79;21287;-72
2021/03/25 06:51:47;;;;;;;111.12;53.42;;;;;;;5.13;72.95;99433.95;2187152;80;21307;-72
2021/03/25 06:54:49;;;;;;;118.47;57.65;;;;;;;5.13;72.95;99433.95;2192574;80;21320;-72
2021/03/25 06:57:51;;;;;;;100.55;49.10;;;;;;;5.14;73.37;99447.38;2165896;80;21386;-72
2021/03/25 07:00:53;;;;;;;107.83;53.15;;;;;;;5.33;73.52;99441.17;2194344;78;21304;-72
2021/03/25 07:03:55;;;;;;;132.05;62.35;;;;;;;5.48;73.14;99432.05;2198944;79;21291;-72
2021/03/25 07:06:58;;;;;;;92.30;47.62;;;;;;;5.48;73.14;99432.05;2196383;80;21348;-72
2021/03/25 07:10:00;;;;;;;89.30;45.25;;;;;;;5.61;72.57;99438.19;2196259;80;21284;-72
2021/03/25 07:13:06;;;;;;;97.22;47.08;;;;;;;5.78;72.83;99432.00;2206163;80;21730;-72
2021/03/25 07:16:09;;;;;;;92.57;45.17;;;;;;;5.92;71.89;99434.61;2169095;80;21315;-72
2021/03/25 07:19:12;;;;;;;;;;;;;;;5.90;71.70;99438.56;2187570;80;21391;-72
2021/03/25 07:22:14;;;;;;;107.65;51.60;;;;;;;5.96;71.62;99438.81;2166480;80;20505;-72
2021/03/25 07:25:16;;;;;;;98.07;49.35;;;;;;;5.91;70.69;99442.88;2199933;80;21287;-72
2021/03/25 07:28:18;;;;;;;97.42;47.90;;;;;;;5.85;71.00;99437.87;2189295;80;21166;-72
2021/03/25 07:31:20;;;;;;;84.30;42.85;;;;;;;5.90;70.84;99438.56;2188181;80;21300;-72
2021/03/25 07:34:22;;;;;;;84.20;38.53;;;;;;;5.88;70.29;99438.61;2180965;80;21355;-72
2021/03/25 07:37:24;;;;;;;75.35;38.35;;;;;;;5.77;69.26;99438.09;2202010;80;21288;-72
2021/03/25 07:40:26;;;;;;;72.95;36.58;;;;;;;5.74;69.81;99434.30;2189937;80;21296;-72
2021/03/25 07:43:29;;;;;;;76.47;37.25;;;;;;;5.79;69.30;99439.34;2197247;79;21289;-72
2021/03/25 07:46:31;;;;;;;77.50;35.90;;;;;;;5.78;69.78;99437.67;2193156;80;21368;-72
2021/03/25 07:49:34;;;;;;;76.55;36.45;;;;;;;5.85;69.52;99439.17;2207979;80;21303;-72
2021/03/25 07:52:36;;;;;;;79.10;36.45;;;;;;;5.96;69.05;99437.52;2191056;80;21375;-72
2021/03/25 07:55:38;;;;;;;74.12;36.00;;;;;;;5.92;68.16;99438.08;2181125;80;21205;-72
2021/03/25 07:58:40;;;;;;;75.05;36.85;;;;;;;5.99;68.84;99432.23;2192370;80;21289;-72
2021/03/25 08:01:42;;;;;;;70.57;35.25;;;;;;;6.22;68.75;99438.86;2183018;80;21277;-72
2021/03/25 08:04:44;;;;;;;73.87;36.23;;;;;;;6.38;68.96;99439.19;2192536;80;21296;-72
2021/03/25 08:07:46;;;;;;;73.28;35.92;;;;;;;6.49;65.61;99437.50;2195131;80;21285;-72
2021/03/25 08:10:48;;;;;;;72.03;35.98;;;;;;;6.48;67.41;99433.64;2197064;80;21807;-72
2021/03/25 08:13:50;;;;;;;72.78;35.65;;;;;;;6.70;67.55;99431.16;2202404;80;21166;-72
2021/03/25 08:16:52;;;;;;;71.25;35.95;;;;;;;6.82;65.55;99441.13;2196081;79;21794;-72
2021/03/25 08:19:55;;;;;;;72.15;36.30;;;;;;;6.92;65.89;99439.92;2192106;80;21121;-72
2021/03/25 08:22:57;;;;;;;74.42;35.80;;;;;;;7.05;65.28;99440.77;2190283;80;21728;-72
2021/03/25 08:25:59;;;;;;;76.85;39.05;;;;;;;7.17;65.25;99432.50;2203776;80;21311;-72
2021/03/25 08:29:02;;;;;;;75.42;38.15;;;;;;;7.36;65.57;99435.72;2187122;80;21288;-72
2021/03/25 08:32:04;;;;;;;74.15;36.53;;;;;;;7.51;64.65;99434.27;2183857;80;21152;-72
2021/03/25 08:35:06;;;;;;;75.72;39.50;;;;;;;7.63;63.36;99432.03;2200432;80;21292;-72
2021/03/25 08:38:09;;;;;;;;;;;;;;;7.77;64.13;99431.94;2196931;80;21154;-72
2021/03/25 08:41:11;;;;;;;77.73;38.73;;;;;;;7.85;62.07;99441.62;2205715;80;20239;-72
2021/03/25 08:44:13;;;;;;;76.90;39.98;;;;;;;7.88;62.97;99434.97;2185199;80;21321;-72
2021/03/25 08:47:15;;;;;;;76.33;40.65;;;;;;;7.98;63.52;99438.91;2204620;80;21306;-72
2021/03/25 08:50:17;;;;;;;80.85;41.30;;;;;;;8.17;63.24;99438.63;2204772;79;21288;-72
2021/03/25 08:53:19;;;;;;;74.30;39.20;;;;;;;8.29;62.56;99442.88;2185087;80;21348;-72
2021/03/25 08:56:21;;;;;;;73.55;39.15;;;;;;;8.47;62.76;99439.97;2184361;80;21295;-72
2021/03/25 08:59:23;;;;;;;78.80;39.58;;;;;;;8.65;62.50;99440.12;2197239;80;21747;-72
2021/03/25 09:02:25;;;;;;;76.22;40.30;;;;;;;8.80;61.97;99426.34;2184988;80;21288;-72
2021/03/25 09:05:28;;;;;;;73.83;39.25;;;;;;;9.04;60.58;99428.80;2192838;80;21133;-72
2021/03/25 09:08:32;;;;;;;75.40;38.92;;;;;;;9.24;60.85;99425.28;2166295;80;21122;-72
2021/03/25 09:11:34;;;;;;;77.55;40.52;;;;;;;9.40;60.04;99428.04;2194528;80;21206;-72
2021/03/25 09:14:36;;;;;;;78.12;39.88;;;;;;;9.58;59.68;99425.47;2195221;80;21347;-72
2021/03/25 09:17:38;;;;;;;76.72;38.42;;;;;;;9.70;59.74;99425.73;2203061;80;21130;-72
2021/03/25 09:20:40;;;;;;;84.72;46.88;;;;;;;9.85;58.48;99422.83;2188330;80;21308;-72
2021/03/25 09:23:46;;;;;;;70.78;38.23;;;;;;;9.89;53.33;99417.83;2176579;81;21304;-72
2021/03/25 09:26:48;;;;;;;76.85;41.50;;;;;;;9.96;58.97;99421.48;2200170;80;21296;-72
2021/03/25 09:29:50;;;;;;;71.33;36.77;;;;;;;10.06;57.85;99420.09;2194144;80;21382;-72
2021/03/25 09:32:52;;;;;;;;;;;;;;;10.04;57.05;99418.87;2196313;80;21835;-72
2021/03/25 09:35:54;;;;;;;64.87;34.73;;;;;;;10.09;55.63;99420.42;2200736;80;20259;-72
2021/03/25 09:38:56;;;;;;;68.60;37.63;;;;;;;10.04;53.75;99418.87;2191706;80;21281;-72
2021/03/25 09:41:58;;;;;;;94.67;46.37;;;;;;;10.03;57.35;99407.98;2199831;80;21288;-72
2021/03/25 09:45:00;;;;;;;60.58;32.25;;;;;;;10.23;57.75;99414.86;2181149;80;21285;-72
2021/03/25 09:48:02;;;;;;;64.92;34.90;;;;;;;10.51;54.66;99413.95;2197623;79;21296;-72
2021/03/25 09:51:05;;;;;;;68.20;36.60;;;;;;;10.78;57.06;99412.15;2205464;80;21657;-71
2021/03/25 09:54:08;;;;;;;58.08;30.80;;;;;;;10.95;56.23;99416.04;2208872;80;21735;-72
2021/03/25 09:57:11;;;;;;;60.70;31.27;;;;;;;11.20;55.43;99412.09;2201466;79;21154;-72
2021/03/25 10:00:13;;;;;;;51.68;29.23;;;;;;;11.41;55.59;99407.45;2200250;80;21292;-71
2021/03/25 10:03:18;;;;;;;58.65;32.73;;;;;;;11.46;55.20;99406.72;2185974;80;21725;-72
2021/03/25 10:06:20;;;;;;;53.15;30.15;;;;;;;11.65;53.79;99403.93;2190157;80;21272;-72
2021/03/25 10:09:22;;;;;;;58.52;31.02;;;;;;;11.66;53.17;99402.97;2197988;80;21185;-72
2021/03/25 10:12:27;;;;;;;53.20;29.18;;;;;;;11.70;54.28;99404.50;2184807;80;21320;-72
2021/03/25 10:15:30;;;;;;;54.58;29.85;;;;;;;11.41;49.60;99400.41;2196099;80;21157;-72
2021/03/25 10:18:32;;;;;;;54.83;29.90;;;;;;;11.19;50.80;99399.88;2200314;79;21319;-72
2021/03/25 10:21:34;;;;;;;51.05;27.37;;;;;;;11.26;53.03;99396.86;2211587;80;21814;-72
2021/03/25 10:24:36;;;;;;;55.10;30.45;;;;;;;11.21;48.26;99399.35;2191786;80;21313;-71
2021/03/25 10:27:38;;;;;;;61.83;34.23;;;;;;;11.01;52.30;99394.70;2187961;80;21720;-71
2021/03/25 10:30:41;;;;;;;57.95;31.15;;;;;;;11.22;52.01;99390.08;2189876;80;21732;-71
2021/03/25 10:33:43;;;;;;;57.78;31.70;;;;;;;11.47;52.72;99391.82;2206620;80;21165;-72
2021/03/25 10:36:45;;;;;;;56.60;31.15;;;;;;;11.94;52.39;99389.63;2185484;80;21284;-72
2021/03/25 10:39:47;;;;;;;54.42;28.87;;;;;;;12.16;51.81;99389.69;2191967;80;21292;-72
2021/03/25 10:42:49;;;;;;;58.25;30.65;;;;;;;12.11;48.72;99385.99;2186133;80;21728;-71
2021/03/25 10:45:51;;;;;;;55.65;30.95;;;;;;;12.15;50.66;99385.36;2181641;80;21372;-71
2021/03/25 10:48:53;;;;;;;60.60;33.15;;;;;;;12.45;49.84;99386.16;2199123;80;21323;-72
2021/03/25 10:51:55;;;;;;;57.00;32.13;;;;;;;12.00;48.01;99386.63;2207849;80;21369;-72
2021/03/25 10:54:57;;;;;;;61.53;33.73;;;;;;;12.21;50.45;99383.68;2187806;80;21307;-71
2021/03/25 10:58:00;;;;;;;59.55;32.63;;;;;;;12.65;49.77;99374.44;2202751;80;21597;-72
2021/03/25 11:01:02;;;;;;;;;;;;;;;13.40;50.57;99377.30;2192324;80;21196;-72
2021/03/25 11:04:07;;;;;;;55.30;31.62;;;;;;;13.97;48.92;99374.94;2185913;79;20272;-71
2021/03/25 11:07:09;;;;;;;57.15;32.60;;;;;;;14.24;48.20;99375.81;2189863;80;21288;-71
2021/03/25 11:10:11;;;;;;;58.17;32.00;;;;;;;14.59;48.72;99369.95;2181359;80;21173;-71
2021/03/25 11:13:15;;;;;;;56.63;33.33;;;;;;;14.60;42.73;99372.97;2190248;80;21382;-71
2021/03/25 11:16:17;;;;;;;54.63;32.48;;;;;;;13.81;44.88;99359.28;2214328;79;21150;-71
2021/03/25 11:19:20;;;;;;;54.08;32.55;;;;;;;14.08;46.59;99361.05;2200309;80;21300;-72
2021/03/25 11:22:23;;;;;;;60.17;34.67;;;;;;;14.28;44.83;99365.43;2194654;79;21149;-71
2021/03/25 11:25:25;;;;;;;59.15;33.85;;;;;;;14.68;46.61;99354.36;2190735;80;21149;-71
2021/03/25 11:28:27;;;;;;;57.45;32.33;;;;;;;15.12;46.39;99345.55;2171969;80;21273;-71
2021/03/25 11:31:30;;;;;;;58.52;33.95;;;;;;;15.41;42.19;99342.59;2190049;80;21316;-71
2021/03/25 11:34:32;;;;;;;57.78;35.28;;;;;;;14.85;41.98;99340.43;2190684;80;21161;-71
2021/03/25 11:37:34;;;;;;;60.38;34.80;;;;;;;14.50;44.35;99339.27;2197173;79;21573;-71
2021/03/25 11:40:36;;;;;;;55.40;33.65;;;;;;;14.62;45.30;99337.59;2182855;80;21589;-71
2021/03/25 11:43:38;;;;;;;60.63;35.35;;;;;;;14.75;44.84;99327.03;2190586;80;21320;-71
2021/03/25 11:46:41;;;;;;;62.83;35.20;;;;;;;14.42;41.91;99331.03;2201268;80;21296;-71
2021/03/25 11:49:43;;;;;;;55.95;32.23;;;;;;;13.93;45.02;99325.97;2197368;80;21660;-71
2021/03/25 11:52:45;;;;;;;57.58;33.25;;;;;;;13.74;41.27;99328.17;2207024;79;21299;-71
2021/03/25 11:55:48;;;;;;;60.15;36.03;;;;;;;13.44;42.78;99327.42;2185411;80;21303;-71
2021/03/25 11:58:49;;;;;;;65.08;36.42;;;;;;;13.43;44.46;99323.56;2198423;80;21308;-71
2021/03/25 12:01:51;;;;;;;57.25;34.50;;;;;;;13.60;44.65;99318.03;2204663;79;21296;-71
2021/03/25 12:04:53;;;;;;;63.15;35.68;;;;;;;13.79;45.56;99317.69;2210446;80;21304;-71
2021/03/25 12:07:55;;;;;;;56.40;33.85;;;;;;;14.17;45.10;99309.45;2206746;80;22588;-71
2021/03/25 12:10:57;;;;;;;60.28;34.92;;;;;;;14.51;43.40;99310.61;2194393;79;21323;-72
2021/03/25 12:14:00;;;;;;;58.20;34.98;;;;;;;14.79;44.71;99304.73;2200783;80;21735;-71
2021/03/25 12:17:03;;;;;;;58.92;35.75;;;;;;;15.01;39.10;99300.11;2189160;80;21720;-71
2021/03/25 12:20:06;;;;;;;54.00;32.55;;;;;;;15.06;42.78;99295.80;2203735;80;21362;-72
2021/03/25 12:23:08;;;;;;;60.28;35.05;;;;;;;15.19;39.66;99292.63;2181023;80;21313;-71
2021/03/25 12:26:10;;;;;;;57.15;34.05;;;;;;;15.22;42.18;99299.01;2198514;79;22531;-71
2021/03/25 12:29:12;;;;;;;56.28;33.02;;;;;;;15.20;40.73;99292.14;2204461;80;21597;-71
2021/03/25 12:32:14;;;;;;;59.67;35.08;;;;;;;15.07;42.60;99286.94;2193025;80;21312;-71
2021/03/25 12:35:17;;;;;;;57.85;34.18;;;;;;;15.33;41.48;99288.98;2196702;80;21319;-72
2021/03/25 12:38:21;;;;;;;57.95;34.53;;;;;;;15.53;42.32;99280.91;2209178;80;21700;-71
2021/03/25 12:41:24;;;;;;;59.65;34.35;;;;;;;15.86;41.77;99277.19;2190224;80;21315;-71
2021/03/25 12:44:26;;;;;;;56.53;33.88;;;;;;;15.81;40.73;99281.50;2192788;80;21272;-72
2021/03/25 12:47:28;;;;;;;;;;;;;;;15.68;40.26;99277.59;2190459;80;21139;-72
2021/03/25 12:50:30;;;;;;;57.98;35.83;;;;;;;15.65;41.29;99273.86;2203619;80;20494;-71
2021/03/25 12:53:32;;;;;;;56.23;34.43;;;;;;;15.94;42.50;99269.52;2190093;80;21308;-72
2021/03/25 12:56:34;;;;;;;57.73;33.28;;;;;;;16.16;41.17;99266.55;2165197;80;21732;-71
2021/03/25 12:59:36;;;;;;;56.63;33.58;;;;;;;16.39;40.94;99262.11;2187577;80;21173;-72
2021/03/25 13:02:38;;;;;;;58.80;34.70;;;;;;;16.44;40.23;99263.92;2208080;79;21130;-71
2021/03/25 13:05:40;;;;;;;59.08;33.75;;;;;;;16.58;40.53;99258.88;2203961;80;21296;-72
2021/03/25 13:08:43;;;;;;;;;;;;;;;16.74;39.43;99257.17;2186717;80;21155;-71
2021/03/25 13:11:45;;;;;;;54.53;33.00;;;;;;;16.73;39.79;99251.51;2197219;80;20273;-71
2021/03/25 13:14:47;;;;;;;61.40;35.30;;;;;;;16.66;39.08;99250.31;2202318;79;21283;-71
2021/03/25 13:17:49;;;;;;;;;;;;;;;16.63;39.78;99244.77;2199464;79;21287;-72
2021/03/25 13:20:53;;;;;;;60.35;35.28;;;;;;;16.80;39.75;99245.59;2184125;79;20232;-72
2021/03/25 13:23:55;;;;;;;55.73;33.80;;;;;;;16.83;39.16;99245.00;2197449;80;21154;-72
2021/03/25 13:26:58;;;;;;;57.65;34.90;;;;;;;16.95;39.43;99240.91;2196261;80;21157;-72
2021/03/25 13:30:02;;;;;;;56.88;34.00;;;;;;;17.12;38.74;99239.55;2197822;80;21307;-71
2021/03/25 13:33:05;;;;;;;58.08;34.80;;;;;;;17.08;37.52;99239.43;2184663;80;21740;-72
2021/03/25 13:36:07;;;;;;;56.13;34.15;;;;;;;16.84;38.94;99240.03;2188345;80;21359;-72
2021/03/25 13:39:09;;;;;;;57.70;33.55;;;;;;;16.78;38.82;99240.08;2197034;80;21281;-72
2021/03/25 13:42:12;;;;;;;56.65;31.93;;;;;;;16.57;37.79;99236.00;2185046;80;21760;-72
2021/03/25 13:45:14;;;;;;;58.23;33.83;;;;;;;16.11;36.80;99237.80;2198564;80;21308;-72
2021/03/25 13:48:16;;;;;;;60.80;34.65;;;;;;;15.30;37.06;99241.65;2204643;80;21295;-72
2021/03/25 13:51:20;;;;;;;56.63;33.95;;;;;;;15.10;38.89;99240.48;2199629;80;21284;-72
2021/03/25 13:54:22;;;;;;;56.23;32.93;;;;;;;15.23;38.40;99234.64;2201757;80;21281;-72
2021/03/25 13:57:24;;;;;;;;;;;;;;;15.08;38.13;99227.84;2185322;80;21720;-72
2021/03/25 14:00:26;;;;;;;56.95;32.80;;;;;;;15.28;40.53;99227.69;2197256;80;20226;-71
2021/03/25 14:03:28;;;;;;;56.15;33.08;;;;;;;15.66;37.83;99232.38;2192411;80;21395;-72
2021/03/25 14:06:30;;;;;;;55.17;32.55;;;;;;;15.45;36.76;99234.37;2196714;80;21299;-71